Time;durP1;ratioP1;P1;durP2;ratioP2;P2;SDS_P1;SDS_P2;PMS_P1;PMS_P2;Temp;Humidity;BMP_temperature;BMP_pressure;BME280_temperature;BME280_humidity;BME280_pressure;Samples;Min_cycle;Max_cycle;Signal;HPM_P1;HPM_P2
2021/12/21 00:02:25;;;;;;;13.05;8.90;;;-1.00;99.90;;;;;;5013152;28;20306;-82
2021/12/21 00:04:53;;;;;;;12.90;8.57;;;-1.00;99.90;;;;;;5003141;28;20325;-82
2021/12/21 00:07:20;;;;;;;12.40;8.25;;;-1.00;99.90;;;;;;5007012;28;20218;-83
2021/12/21 00:09:47;;;;;;;15.35;9.98;;;-1.00;99.90;;;;;;5010621;28;20216;-81
2021/12/21 00:12:17;;;;;;;16.45;9.18;;;-1.00;99.90;;;;;;5015451;28;20314;-80
2021/12/21 00:14:56;;;;;;;15.23;9.27;;;-1.00;99.90;;;;;;4998835;28;20287;-83
2021/12/21 00:17:44;;;;;;;18.98;11.23;;;-1.00;99.90;;;;;;5007797;28;20261;-80
2021/12/21 00:20:26;;;;;;;16.88;10.02;;;-1.00;99.90;;;;;;5000506;28;20611;-82
2021/12/21 00:25:34;;;;;;;14.77;9.38;;;-1.10;99.90;;;;;;4992476;28;20206;-83
2021/12/21 00:28:02;;;;;;;17.13;9.25;;;-1.10;99.90;;;;;;5010109;28;20688;-83
2021/12/21 00:30:29;;;;;;;17.52;9.55;;;-1.10;99.90;;;;;;5015693;28;20435;-83
2021/12/21 00:32:56;;;;;;;15.00;10.05;;;-1.20;99.90;;;;;;5016617;28;20224;-82
2021/12/21 00:35:24;;;;;;;16.23;9.77;;;-1.20;99.90;;;;;;5010600;28;20218;-82
2021/12/21 00:37:51;;;;;;;12.55;8.43;;;-1.20;99.90;;;;;;5008322;28;20274;-80
2021/12/21 00:40:18;;;;;;;13.63;9.68;;;-1.20;99.90;;;;;;5019659;28;20204;-83
2021/12/21 00:42:45;;;;;;;14.60;8.93;;;-1.20;99.90;;;;;;5017029;28;20233;-82
2021/12/21 00:45:12;;;;;;;17.95;9.63;;;-1.20;99.90;;;;;;5016555;28;20204;-82
2021/12/21 00:47:41;;;;;;;12.57;7.57;;;-1.10;99.90;;;;;;5018557;28;20230;-81
2021/12/21 00:50:16;;;;;;;14.23;9.18;;;-1.20;99.90;;;;;;5007361;28;20319;-82
2021/12/21 00:52:45;;;;;;;13.82;9.20;;;-1.20;99.90;;;;;;4997771;28;20794;-82
2021/12/21 00:55:12;;;;;;;13.77;8.57;;;-1.30;99.90;;;;;;4998876;28;20204;-82
2021/12/21 00:57:39;;;;;;;16.85;9.93;;;-1.40;99.90;;;;;;5012513;28;20198;-82
2021/12/21 01:00:08;;;;;;;12.77;8.88;;;-1.40;99.90;;;;;;5017186;28;20213;-82
2021/12/21 01:02:35;;;;;;;15.65;8.57;;;-1.40;99.90;;;;;;5016163;28;20226;-83
2021/12/21 01:05:03;;;;;;;15.20;9.30;;;-1.40;99.90;;;;;;5017521;28;20613;-81
2021/12/21 01:07:35;;;;;;;13.80;9.43;;;-1.40;99.90;;;;;;5017196;28;20246;-82
2021/12/21 01:10:33;;;;;;;14.02;8.70;;;-1.40;99.90;;;;;;5016995;28;20212;-82
2021/12/21 01:13:10;;;;;;;14.60;9.30;;;-1.50;99.90;;;;;;5010103;28;20216;-82
2021/12/21 01:15:52;;;;;;;14.93;8.82;;;-1.50;99.90;;;;;;4997221;28;20207;-83
2021/12/21 01:18:23;;;;;;;16.33;8.98;;;-1.40;99.90;;;;;;4998276;28;20686;-82
2021/12/21 01:21:02;;;;;;;20.45;10.18;;;-1.40;99.90;;;;;;4998478;28;20204;-81
2021/12/21 01:23:52;;;;;;;17.52;8.60;;;-1.50;99.90;;;;;;5010413;28;20759;-82
2021/12/21 01:26:27;;;;;;;14.40;9.15;;;-1.50;99.90;;;;;;4996819;28;20775;-82
2021/12/21 01:29:03;;;;;;;17.02;7.50;;;-1.50;99.90;;;;;;4998624;28;20196;-82
2021/12/21 01:31:38;;;;;;;10.93;7.60;;;-1.50;99.90;;;;;;4996603;28;20306;-82
2021/12/21 01:34:19;;;;;;;15.27;7.80;;;-1.50;99.90;;;;;;4998053;28;20230;-82
2021/12/21 01:36:52;;;;;;;11.55;6.90;;;-1.50;99.90;;;;;;4998770;28;20672;-84
2021/12/21 01:39:46;;;;;;;14.95;8.82;;;-1.50;99.90;;;;;;4999163;28;20580;-83
2021/12/21 01:42:18;;;;;;;17.50;9.05;;;-1.40;99.90;;;;;;4997764;28;20282;-84
2021/12/21 01:50:10;;;;;;;12.02;8.95;;;-1.50;99.90;;;;;;5016863;28;20209;-83
2021/12/21 01:52:37;;;;;;;11.38;8.18;;;-1.60;99.90;;;;;;5016139;28;20249;-81
2021/12/21 01:55:04;;;;;;;12.88;8.98;;;-1.60;99.90;;;;;;5007325;28;20204;-83
2021/12/21 01:57:33;;;;;;;16.08;8.65;;;-1.60;99.90;;;;;;5011478;28;20208;-83
2021/12/21 02:00:00;;;;;;;18.48;10.15;;;-1.60;99.90;;;;;;5016380;28;20211;-83
2021/12/21 02:02:27;;;;;;;15.27;9.48;;;-1.60;99.90;;;;;;5000124;28;20568;-83
2021/12/21 02:04:54;;;;;;;15.30;8.35;;;-1.60;99.90;;;;;;4997615;28;20215;-83
2021/12/21 02:07:21;;;;;;;11.00;7.60;;;-1.60;99.90;;;;;;5008296;28;20595;-82
2021/12/21 02:09:47;;;;;;;13.73;8.38;;;-1.70;99.90;;;;;;5016483;28;20215;-83
2021/12/21 02:12:17;;;;;;;14.45;8.70;;;-1.70;99.90;;;;;;5012158;28;20227;-82
2021/12/21 02:14:52;;;;;;;16.00;9.73;;;-1.70;99.90;;;;;;5015018;28;20207;-83
2021/12/21 02:17:43;;;;;;;15.63;10.98;;;-1.80;99.90;;;;;;5016030;28;20199;-83
2021/12/21 02:20:20;;;;;;;13.32;8.77;;;-1.70;99.90;;;;;;5015512;28;20210;-83
2021/12/21 02:22:53;;;;;;;12.88;8.68;;;-1.70;99.90;;;;;;5008649;28;20223;-83
2021/12/21 02:25:52;;;;;;;15.48;9.10;;;-1.80;99.90;;;;;;4996834;28;20208;-82
2021/12/21 02:28:36;;;;;;;16.38;10.40;;;-1.80;99.90;;;;;;4996604;28;20623;-82
2021/12/21 02:31:02;;;;;;;12.45;8.65;;;-1.70;99.90;;;;;;4996137;28;20223;-81
2021/12/21 02:33:29;;;;;;;14.10;9.45;;;-1.70;99.90;;;;;;4998195;28;20227;-80
2021/12/21 02:35:58;;;;;;;17.73;10.07;;;-1.80;99.90;;;;;;4997319;28;20667;-80
2021/12/21 02:38:25;;;;;;;25.48;12.35;;;-1.70;99.90;;;;;;4997053;28;20205;-80
2021/12/21 02:40:52;;;;;;;19.30;10.95;;;-1.90;99.90;;;;;;4995782;28;20203;-81
2021/12/21 02:43:19;;;;;;;21.77;11.00;;;-1.80;99.90;;;;;;5002880;28;20226;-80
2021/12/21 02:45:46;;;;;;;18.73;11.60;;;-1.70;99.90;;;;;;5015324;28;20222;-80
2021/12/21 02:48:13;;;;;;;15.43;9.85;;;-1.80;99.90;;;;;;5015654;28;20202;-80
2021/12/21 02:50:41;;;;;;;16.52;9.70;;;-1.80;99.90;;;;;;5010321;28;20199;-81
2021/12/21 02:53:10;;;;;;;23.13;11.00;;;-1.80;99.90;;;;;;5000229;28;20301;-81
2021/12/21 02:55:38;;;;;;;20.13;10.55;;;-1.80;99.90;;;;;;5013567;28;20213;-80
2021/12/21 02:58:05;;;;;;;19.08;9.48;;;-1.80;99.90;;;;;;4997919;28;20211;-82
2021/12/21 03:00:33;;;;;;;17.55;9.13;;;-1.80;99.90;;;;;;4997139;28;20213;-80
2021/12/21 03:03:06;;;;;;;17.42;9.68;;;-1.90;99.90;;;;;;4995897;28;20237;-79
2021/12/21 03:05:33;;;;;;;15.68;10.10;;;-1.90;99.90;;;;;;4995438;28;20642;-79
2021/12/21 03:08:11;;;;;;;15.73;9.45;;;-1.90;99.90;;;;;;5012977;28;20206;-80
2021/12/21 03:10:47;;;;;;;16.23;8.75;;;-2.00;99.90;;;;;;5007549;28;20211;-80
2021/12/21 03:15:58;;;;;;;12.10;8.93;;;-2.10;99.90;;;;;;4996317;28;20198;-80
2021/12/21 03:18:25;;;;;;;14.75;9.00;;;-2.10;99.90;;;;;;4996545;28;20216;-81
2021/12/21 03:20:52;;;;;;;14.27;9.25;;;-2.10;99.90;;;;;;5003940;28;20191;-80
2021/12/21 03:23:18;;;;;;;9.70;7.28;;;-2.10;99.90;;;;;;5015914;28;20275;-81
2021/12/21 03:25:47;;;;;;;15.90;10.75;;;-2.10;99.90;;;;;;5014452;28;20213;-81
2021/12/21 03:28:13;;;;;;;14.00;9.55;;;-2.20;99.90;;;;;;5013735;28;20209;-81
2021/12/21 03:30:40;;;;;;;15.35;9.05;;;-2.20;99.90;;;;;;5027998;28;20217;-80
2021/12/21 03:33:07;;;;;;;23.05;11.30;;;-2.20;99.90;;;;;;5032545;28;20227;-81
2021/12/21 03:35:34;;;;;;;17.42;11.27;;;-2.20;99.90;;;;;;5022072;28;20293;-82
2021/12/21 03:38:00;;;;;;;13.95;8.90;;;-2.30;99.90;;;;;;5014611;28;20219;-80
2021/12/21 03:40:31;;;;;;;15.73;9.43;;;-2.30;99.90;;;;;;5013434;28;20214;-80
2021/12/21 03:42:59;;;;;;;12.50;9.05;;;-2.30;99.90;;;;;;5014114;28;20230;-81
2021/12/21 03:45:28;;;;;;;19.70;10.30;;;-2.20;99.90;;;;;;5001061;28;20287;-81
2021/12/21 03:47:54;;;;;;;14.68;9.25;;;-2.20;99.90;;;;;;4995328;28;20208;-80
2021/12/21 03:50:21;;;;;;;15.40;9.48;;;-2.30;99.90;;;;;;4995003;28;20211;-80
2021/12/21 03:52:48;;;;;;;14.38;9.20;;;-2.20;99.90;;;;;;4994663;28;20235;-80
2021/12/21 03:55:15;;;;;;;14.95;8.90;;;-2.30;99.90;;;;;;5008187;28;20210;-80
2021/12/21 03:57:42;;;;;;;14.38;9.15;;;-2.30;99.90;;;;;;5015415;28;20201;-81
2021/12/21 04:00:15;;;;;;;15.40;11.00;;;-2.20;99.90;;;;;;5018298;28;20217;-80
2021/12/21 04:02:42;;;;;;;18.88;9.50;;;-2.30;99.90;;;;;;5016963;28;20222;-80
2021/12/21 04:05:09;;;;;;;13.20;9.43;;;-2.30;99.90;;;;;;5018725;28;20214;-81
2021/12/21 04:07:36;;;;;;;15.48;8.90;;;-2.20;99.90;;;;;;5017923;28;20214;-81
2021/12/21 04:10:04;;;;;;;14.05;8.70;;;-2.20;99.90;;;;;;5017641;28;20207;-80
2021/12/21 04:12:31;;;;;;;18.88;11.25;;;-2.20;99.90;;;;;;5007577;28;20228;-80
2021/12/21 04:14:58;;;;;;;20.38;10.48;;;-2.20;99.90;;;;;;5002917;28;20196;-80
2021/12/21 04:17:26;;;;;;;15.65;9.73;;;-2.20;99.90;;;;;;5019432;28;20227;-81
2021/12/21 04:19:53;;;;;;;14.27;9.88;;;-2.20;99.90;;;;;;5020297;28;20293;-81
2021/12/21 04:22:21;;;;;;;15.25;10.50;;;-2.20;99.90;;;;;;5017792;28;20222;-81
2021/12/21 04:24:50;;;;;;;17.40;10.60;;;-2.20;99.90;;;;;;5016809;28;20211;-81
2021/12/21 04:27:18;;;;;;;17.75;10.43;;;-2.10;99.90;;;;;;4998744;28;20214;-81
2021/12/21 04:29:45;;;;;;;19.25;11.50;;;-2.20;99.90;;;;;;4999577;28;20210;-81
2021/12/21 04:32:12;;;;;;;19.00;10.80;;;-2.20;99.90;;;;;;4998519;28;20235;-80
2021/12/21 04:34:40;;;;;;;15.52;10.68;;;-2.20;99.90;;;;;;4997883;28;20210;-80
2021/12/21 04:37:08;;;;;;;19.80;11.52;;;-2.30;99.90;;;;;;4998276;28;20207;-80
2021/12/21 04:39:54;;;;;;;19.67;10.15;;;-2.30;99.90;;;;;;5013227;28;20206;-82
2021/12/21 04:42:21;;;;;;;20.95;11.45;;;-2.20;99.90;;;;;;5020605;28;20770;-78
2021/12/21 04:44:47;;;;;;;20.10;11.25;;;-2.20;99.90;;;;;;5022338;28;20206;-79
2021/12/21 04:47:14;;;;;;;24.50;12.52;;;-2.30;99.90;;;;;;5018592;28;20230;-79
2021/12/21 04:49:42;;;;;;;19.58;10.70;;;-2.30;99.90;;;;;;5022392;28;20210;-79
2021/12/21 04:52:09;;;;;;;21.85;12.10;;;-2.30;99.90;;;;;;5021371;28;20304;-79
2021/12/21 04:54:39;;;;;;;16.17;10.90;;;-2.20;99.90;;;;;;5008229;28;20207;-79
2021/12/21 04:57:06;;;;;;;21.20;11.20;;;-2.20;99.90;;;;;;5000161;28;20207;-79
2021/12/21 04:59:33;;;;;;;21.08;11.10;;;-2.20;99.90;;;;;;5011832;28;20245;-78
2021/12/21 05:02:00;;;;;;;19.23;11.68;;;-2.20;99.90;;;;;;5019128;28;20213;-80
2021/12/21 05:04:27;;;;;;;24.65;14.00;;;-2.10;99.90;;;;;;5008628;28;20204;-79
2021/12/21 05:06:55;;;;;;;19.65;11.63;;;-2.20;99.90;;;;;;5000078;28;20692;-80
2021/12/21 05:09:25;;;;;;;17.70;11.23;;;-2.20;99.90;;;;;;4999831;28;20592;-80
2021/12/21 05:11:53;;;;;;;26.05;11.80;;;-2.20;99.90;;;;;;5011804;28;20284;-79
2021/12/21 05:14:20;;;;;;;19.40;11.93;;;-2.10;99.90;;;;;;5020933;28;20215;-80
2021/12/21 05:16:47;;;;;;;23.25;12.13;;;-2.10;99.90;;;;;;5020747;28;20231;-80
2021/12/21 05:19:14;;;;;;;16.60;10.60;;;-2.20;99.90;;;;;;5017381;28;20202;-79
2021/12/21 05:21:41;;;;;;;23.08;13.57;;;-2.20;99.90;;;;;;5005922;28;20199;-81
2021/12/21 05:24:09;;;;;;;20.05;12.68;;;-2.20;99.90;;;;;;5006459;28;20209;-79
2021/12/21 05:26:37;;;;;;;18.65;12.05;;;-2.20;99.90;;;;;;5020924;28;20211;-79
2021/12/21 05:29:04;;;;;;;24.98;11.07;;;-2.30;99.90;;;;;;5023497;28;20207;-79
2021/12/21 05:31:30;;;;;;;18.27;12.20;;;-2.30;99.90;;;;;;5021968;28;20211;-80
2021/12/21 05:33:57;;;;;;;19.42;11.30;;;-2.20;99.90;;;;;;5017589;28;20223;-80
2021/12/21 05:36:25;;;;;;;21.58;13.05;;;-2.20;99.90;;;;;;5002489;28;20215;-79
2021/12/21 05:38:58;;;;;;;20.45;11.75;;;-2.30;99.90;;;;;;5020519;28;20209;-79
2021/12/21 05:41:30;;;;;;;17.92;10.45;;;-2.30;99.90;;;;;;5019801;28;20206;-77
2021/12/21 05:43:57;;;;;;;24.67;12.98;;;-2.30;99.90;;;;;;5012946;28;20223;-78
2021/12/21 05:46:24;;;;;;;19.85;11.07;;;-2.30;99.90;;;;;;5002005;28;20211;-81
2021/12/21 05:48:52;;;;;;;18.65;10.57;;;-2.30;99.90;;;;;;4999891;28;20212;-78
2021/12/21 05:51:20;;;;;;;20.60;12.25;;;-2.30;99.90;;;;;;5014348;28;20226;-79
2021/12/21 05:53:47;;;;;;;22.67;11.13;;;-2.30;99.90;;;;;;5018568;28;20641;-79
2021/12/21 05:56:14;;;;;;;16.92;11.00;;;-2.40;99.90;;;;;;5003904;28;20211;-79
2021/12/21 05:58:42;;;;;;;20.25;11.10;;;-2.40;99.90;;;;;;5004230;28;20279;-79
2021/12/21 06:01:09;;;;;;;21.63;10.18;;;-2.40;99.90;;;;;;5015829;28;20234;-83
2021/12/21 06:03:36;;;;;;;16.88;10.75;;;-2.40;99.90;;;;;;5019688;28;20641;-82
2021/12/21 06:06:03;;;;;;;17.65;10.35;;;-2.40;99.90;;;;;;5019875;28;20207;-79
2021/12/21 06:08:30;;;;;;;16.10;10.38;;;-2.40;99.90;;;;;;5010127;28;20203;-79
2021/12/21 06:10:57;;;;;;;16.35;11.43;;;-2.50;99.90;;;;;;5006577;28;20210;-80
2021/12/21 06:22:43;;;;;;;15.35;10.43;;;-2.50;99.90;;;;;;4992051;28;20264;-79
2021/12/21 06:27:28;;;;;;;16.92;10.40;;;0.50;99.90;;;;;;4993818;28;20342;-79
2021/12/21 06:29:55;;;;;;;1279.95;566.88;;;3.20;99.90;;;;;;4989304;28;20203;-80
2021/12/21 06:32:24;;;;;;;24.02;14.50;;;1.90;99.90;;;;;;5016141;28;20242;-80
2021/12/21 06:34:51;;;;;;;23.50;14.63;;;1.00;99.90;;;;;;5012815;28;20201;-80
2021/12/21 06:37:18;;;;;;;19.60;12.63;;;0.20;99.90;;;;;;5022312;28;20211;-81
2021/12/21 06:39:45;;;;;;;1999.90;999.90;;;-0.40;99.90;;;;;;5012351;28;20204;-79
2021/12/21 06:42:14;;;;;;;21.05;11.75;;;-0.80;99.90;;;;;;5003020;28;20240;-79
2021/12/21 06:44:43;;;;;;;22.27;11.32;;;-1.00;99.90;;;;;;5002832;28;20209;-78
2021/12/21 06:52:39;;;;;;;21.13;11.82;;;-1.60;99.90;;;;;;5017096;28;20232;-78
2021/12/21 06:55:07;;;;;;;18.52;12.25;;;-1.80;99.90;;;;;;5017936;28;20274;-80
2021/12/21 06:57:37;;;;;;;26.38;11.00;;;-2.00;99.90;;;;;;5015915;28;20710;-78
2021/12/21 07:00:05;;;;;;;24.15;11.90;;;-2.00;99.90;;;;;;5009103;28;20262;-78
2021/12/21 07:02:32;;;;;;;18.98;11.73;;;-2.10;99.90;;;;;;5020755;28;20237;-79
2021/12/21 07:05:01;;;;;;;16.40;9.38;;;-2.20;99.90;;;;;;5007710;28;20266;-79
2021/12/21 07:07:28;;;;;;;19.55;11.80;;;-2.20;99.90;;;;;;5007819;28;20255;-79
2021/12/21 07:10:00;;;;;;;27.55;10.00;;;-2.10;99.90;;;;;;5000649;28;20199;-79
2021/12/21 07:17:58;;;;;;;16.75;10.07;;;-2.10;99.90;;;;;;5005948;28;20226;-78
2021/12/21 07:18:23;;;;;;;18.90;10.85;;;-2.20;99.90;;;;;;5006807;28;20270;-79
2021/12/21 07:20:52;;;;;;;21.45;9.63;;;-2.20;99.90;;;;;;5007178;28;20204;-78
2021/12/21 07:23:19;;;;;;;23.95;11.82;;;-2.20;99.90;;;;;;5008194;28;20223;-79
2021/12/21 07:25:47;;;;;;;16.48;9.98;;;-2.20;99.90;;;;;;5007595;28;20195;-80
2021/12/21 07:28:14;;;;;;;15.43;9.63;;;-2.30;99.90;;;;;;5008085;28;20234;-80
2021/12/21 07:30:41;;;;;;;23.92;10.50;;;-2.20;99.90;;;;;;5009741;28;20213;-79
2021/12/21 07:33:09;;;;;;;20.45;10.65;;;-2.20;99.90;;;;;;5015394;28;20227;-80
2021/12/21 07:35:37;;;;;;;18.95;11.43;;;-2.20;99.90;;;;;;5016023;28;20270;-81
2021/12/21 07:38:05;;;;;;;16.15;11.32;;;-2.30;99.90;;;;;;5011417;28;20199;-79
2021/12/21 07:40:32;;;;;;;17.23;9.68;;;-2.30;99.90;;;;;;5010572;28;20215;-80
2021/12/21 07:43:00;;;;;;;21.40;10.88;;;-2.30;99.90;;;;;;5007206;28;20228;-78
2021/12/21 07:45:28;;;;;;;17.40;10.32;;;-2.30;99.90;;;;;;5006328;28;20664;-79
2021/12/21 07:47:55;;;;;;;23.35;13.70;;;-2.30;99.90;;;;;;5007640;28;20213;-78
2021/12/21 07:50:22;;;;;;;19.77;10.57;;;-2.40;99.90;;;;;;5012074;28;20205;-79
2021/12/21 07:52:51;;;;;;;23.88;12.10;;;-2.30;99.90;;;;;;5009717;28;20234;-79
2021/12/21 07:55:19;;;;;;;21.13;10.25;;;-2.30;99.90;;;;;;5009084;28;20203;-79
2021/12/21 07:57:46;;;;;;;19.90;10.63;;;-2.30;99.90;;;;;;5009836;28;20203;-79
2021/12/21 08:00:15;;;;;;;24.25;11.93;;;-2.30;99.90;;;;;;5012129;28;20203;-79
2021/12/21 08:02:42;;;;;;;25.30;12.75;;;-2.30;99.90;;;;;;5011143;28;20219;-79
2021/12/21 08:05:11;;;;;;;25.45;14.18;;;-2.30;99.90;;;;;;5010233;28;20776;-78
2021/12/21 08:07:46;;;;;;;27.48;12.65;;;-2.20;99.90;;;;;;5011362;28;20207;-80
2021/12/21 08:10:26;;;;;;;29.20;14.40;;;-2.20;99.90;;;;;;5011168;28;20289;-81
2021/12/21 08:12:54;;;;;;;32.47;14.35;;;-2.30;99.90;;;;;;5003956;28;20318;-80
2021/12/21 08:15:22;;;;;;;29.58;14.70;;;-2.20;99.90;;;;;;5001510;28;20243;-79
2021/12/21 08:17:48;;;;;;;26.42;12.73;;;-2.10;99.90;;;;;;5007534;28;20202;-80
2021/12/21 08:20:15;;;;;;;25.90;14.07;;;-2.10;99.90;;;;;;4999884;28;20270;-80
2021/12/21 08:22:42;;;;;;;31.55;15.15;;;-2.00;99.90;;;;;;5002404;28;20221;-80
2021/12/21 08:25:10;;;;;;;26.55;13.48;;;-1.90;99.90;;;;;;5020921;28;20199;-80
2021/12/21 08:27:37;;;;;;;25.60;14.60;;;-1.90;99.90;;;;;;5008869;28;20207;-80
2021/12/21 08:30:07;;;;;;;25.50;14.82;;;-1.90;99.90;;;;;;5001387;28;20204;-81
2021/12/21 08:32:33;;;;;;;22.13;11.90;;;-1.90;99.90;;;;;;5006181;28;20212;-81
2021/12/21 08:35:00;;;;;;;27.77;14.65;;;-1.80;99.90;;;;;;5016443;28;20206;-79
2021/12/21 08:37:28;;;;;;;27.92;14.82;;;-1.80;99.90;;;;;;5015937;28;20215;-80
2021/12/21 08:39:55;;;;;;;28.20;14.65;;;-2.00;99.90;;;;;;5008279;28;20315;-79
2021/12/21 08:42:24;;;;;;;29.48;14.38;;;-2.00;99.90;;;;;;5000943;28;20715;-79
2021/12/21 08:44:51;;;;;;;24.98;13.15;;;-2.00;99.90;;;;;;5004713;28;20199;-79
2021/12/21 08:47:19;;;;;;;22.48;13.50;;;-1.90;99.90;;;;;;5007220;28;20200;-80
2021/12/21 08:49:49;;;;;;;32.05;14.10;;;-1.90;99.90;;;;;;5014542;28;20265;-79
2021/12/21 08:52:16;;;;;;;25.63;14.40;;;-1.90;99.90;;;;;;5003563;28;20277;-79
2021/12/21 08:54:44;;;;;;;25.42;13.25;;;-1.70;99.90;;;;;;5007946;28;20266;-79
2021/12/21 08:57:10;;;;;;;23.70;13.70;;;-1.70;99.90;;;;;;5017120;28;20293;-79
2021/12/21 08:59:37;;;;;;;24.60;13.20;;;-1.70;99.90;;;;;;5014045;28;20209;-80
2021/12/21 09:02:05;;;;;;;25.25;13.90;;;-1.60;99.90;;;;;;5002770;28;20231;-79
2021/12/21 09:04:33;;;;;;;25.23;12.75;;;-1.50;99.90;;;;;;5007024;28;20242;-79
2021/12/21 09:07:02;;;;;;;25.75;14.10;;;-1.50;99.90;;;;;;5014113;28;20207;-79
2021/12/21 09:09:29;;;;;;;33.15;16.88;;;-1.50;99.90;;;;;;5018099;28;20203;-79
2021/12/21 09:11:56;;;;;;;27.92;14.88;;;-1.50;99.90;;;;;;5006022;28;20287;-79
2021/12/21 09:14:23;;;;;;;25.08;14.60;;;-1.50;99.90;;;;;;5009133;28;20598;-80
2021/12/21 09:16:51;;;;;;;24.02;12.55;;;-1.40;99.90;;;;;;5013791;28;20648;-79
2021/12/21 09:19:18;;;;;;;27.83;14.02;;;-1.40;99.90;;;;;;5012811;28;20238;-81
2021/12/21 09:21:46;;;;;;;25.65;15.15;;;-1.30;99.90;;;;;;5014167;28;20560;-80
2021/12/21 09:24:13;;;;;;;23.15;12.88;;;-1.30;99.90;;;;;;5009668;28;20637;-80
2021/12/21 09:26:40;;;;;;;20.20;13.13;;;-1.20;99.90;;;;;;5008566;28;20195;-80
2021/12/21 09:29:07;;;;;;;27.30;14.15;;;-1.30;99.90;;;;;;5018176;28;20259;-81
2021/12/21 09:31:33;;;;;;;25.67;13.70;;;-1.20;99.90;;;;;;5012247;28;20360;-79
2021/12/21 09:34:00;;;;;;;22.92;13.18;;;-1.10;99.90;;;;;;5021696;28;20290;-81
2021/12/21 09:36:29;;;;;;;25.33;14.38;;;-1.00;99.90;;;;;;5014722;28;20212;-81
2021/12/21 09:38:58;;;;;;;26.60;14.43;;;-1.00;99.90;;;;;;5007708;28;20271;-80
2021/12/21 09:41:25;;;;;;;26.65;14.35;;;-1.00;99.90;;;;;;5021944;28;20275;-80
2021/12/21 09:43:52;;;;;;;24.95;13.73;;;-0.90;99.90;;;;;;5009121;28;20254;-80
2021/12/21 09:46:19;;;;;;;22.73;14.55;;;-1.00;99.90;;;;;;5002401;28;20209;-78
2021/12/21 09:48:46;;;;;;;27.75;13.10;;;-0.90;99.90;;;;;;5019067;28;20285;-80
2021/12/21 09:51:13;;;;;;;26.67;15.50;;;-0.90;99.90;;;;;;5020258;28;20209;-80
2021/12/21 09:53:40;;;;;;;21.73;11.95;;;-0.90;99.90;;;;;;5021187;28;20250;-79
2021/12/21 09:56:08;;;;;;;22.25;14.45;;;-0.90;99.90;;;;;;5024712;28;20287;-81
2021/12/21 09:58:35;;;;;;;30.40;14.13;;;-0.80;99.90;;;;;;5015410;28;20207;-79
2021/12/21 10:01:04;;;;;;;24.23;13.25;;;-0.80;99.90;;;;;;5008159;28;20235;-80
2021/12/21 10:03:31;;;;;;;24.98;13.38;;;-0.70;99.90;;;;;;5011525;28;20219;-80
2021/12/21 10:06:04;;;;;;;18.48;11.02;;;-0.70;99.90;;;;;;5010584;28;20210;-81
2021/12/21 10:08:32;;;;;;;22.00;13.10;;;-0.60;99.90;;;;;;5008668;28;20202;-80
2021/12/21 10:11:00;;;;;;;19.13;12.00;;;-0.50;99.90;;;;;;5008825;28;20198;-81
2021/12/21 10:13:29;;;;;;;20.85;12.45;;;-0.50;99.90;;;;;;5002668;28;20232;-81
2021/12/21 10:15:58;;;;;;;16.85;10.32;;;-0.50;99.90;;;;;;5022469;28;20738;-80
2021/12/21 10:18:27;;;;;;;15.10;11.30;;;-0.50;99.90;;;;;;5011993;28;20199;-79
2021/12/21 10:20:56;;;;;;;22.30;12.00;;;-0.40;99.90;;;;;;5001493;28;20288;-80
2021/12/21 10:23:26;;;;;;;21.38;13.57;;;-0.40;99.90;;;;;;5011940;28;20318;-79
2021/12/21 10:25:59;;;;;;;26.38;13.75;;;-0.30;99.90;;;;;;5010459;28;20211;-79
2021/12/21 10:28:34;;;;;;;34.33;17.58;;;-0.20;99.90;;;;;;5012224;28;20203;-79
2021/12/21 10:31:04;;;;;;;32.65;18.60;;;-0.20;99.90;;;;;;5007096;28;20198;-81
2021/12/21 10:33:31;;;;;;;31.48;17.60;;;-0.10;99.90;;;;;;4983458;28;20633;-80
2021/12/21 10:36:00;;;;;;;28.65;15.63;;;-0.10;99.90;;;;;;5010577;28;20206;-81
2021/12/21 10:38:28;;;;;;;25.67;13.63;;;0.00;99.90;;;;;;5023386;28;20269;-80
2021/12/21 10:40:59;;;;;;;21.48;14.13;;;0.20;99.90;;;;;;5001677;28;20289;-80
2021/12/21 10:43:28;;;;;;;24.73;14.65;;;0.50;99.90;;;;;;4998735;28;20222;-77
2021/12/21 10:45:56;;;;;;;22.25;13.75;;;0.80;99.90;;;;;;5010628;28;20198;-78
2021/12/21 10:48:23;;;;;;;25.42;13.52;;;0.90;99.90;;;;;;5008398;28;20208;-78
2021/12/21 10:50:51;;;;;;;18.83;12.45;;;0.90;99.90;;;;;;4993138;28;20203;-77
2021/12/21 10:53:19;;;;;;;17.42;11.18;;;1.00;99.90;;;;;;4995708;28;20231;-80
2021/12/21 10:55:47;;;;;;;18.40;12.45;;;1.10;99.90;;;;;;5010656;28;20697;-78
2021/12/21 10:58:18;;;;;;;19.55;11.30;;;1.10;99.90;;;;;;4997834;28;20218;-78
2021/12/21 11:00:48;;;;;;;16.33;12.70;;;1.10;99.90;;;;;;5006019;28;20486;-79
2021/12/21 11:03:20;;;;;;;17.42;10.90;;;1.00;99.90;;;;;;4995326;28;21040;-80
2021/12/21 11:05:47;;;;;;;13.65;9.98;;;1.10;99.90;;;;;;4995336;28;20192;-80
2021/12/21 11:08:24;;;;;;;13.60;9.13;;;1.20;99.90;;;;;;4994816;28;20201;-79
2021/12/21 11:10:56;;;;;;;14.27;9.38;;;1.20;99.90;;;;;;4998705;28;20199;-80
2021/12/21 11:13:23;;;;;;;17.77;10.10;;;1.10;99.90;;;;;;5010411;28;20284;-80
2021/12/21 11:15:53;;;;;;;17.73;11.07;;;1.20;99.90;;;;;;5007396;28;20205;-78
2021/12/21 11:18:23;;;;;;;13.93;9.57;;;1.30;99.90;;;;;;4999516;28;20278;-81
2021/12/21 11:20:52;;;;;;;18.35;10.32;;;1.40;99.90;;;;;;5014817;28;20219;-80
2021/12/21 11:23:21;;;;;;;15.98;10.50;;;1.50;99.90;;;;;;5014780;28;20249;-80
2021/12/21 11:25:53;;;;;;;23.40;11.50;;;2.20;99.90;;;;;;4997819;28;20206;-80
2021/12/21 11:28:22;;;;;;;19.10;10.33;;;4.00;99.90;;;;;;5015170;28;20442;-81
2021/12/21 11:30:50;;;;;;;15.80;9.90;;;6.70;99.90;;;;;;4998599;28;20455;-79
2021/12/21 11:33:19;;;;;;;12.40;8.03;;;9.20;99.90;;;;;;5000258;28;20554;-81
2021/12/21 11:38:34;;;;;;;10.63;6.60;;;11.90;99.90;;;;;;5005561;28;20453;-81
2021/12/21 11:41:01;;;;;;;7.73;5.77;;;12.00;99.90;;;;;;5001035;28;20839;-80
2021/12/21 11:43:42;;;;;;;13.93;6.63;;;11.60;99.90;;;;;;5005602;28;20503;-81
2021/12/21 11:46:14;;;;;;;13.00;7.70;;;11.20;99.90;;;;;;5017665;28;20459;-80
2021/12/21 11:48:49;;;;;;;8.60;6.80;;;11.20;99.90;;;;;;5025446;28;20465;-81
2021/12/21 11:51:17;;;;;;;7.30;6.17;;;10.80;99.90;;;;;;5025841;28;20440;-79
2021/12/21 11:53:44;;;;;;;8.30;5.80;;;10.10;99.90;;;;;;5024497;28;20486;-81
2021/12/21 11:56:19;;;;;;;9.43;5.93;;;9.80;99.90;;;;;;5026044;28;20537;-81
2021/12/21 11:58:49;;;;;;;8.73;6.00;;;9.90;99.90;;;;;;5027031;28;20456;-81
2021/12/21 12:01:22;;;;;;;11.23;6.07;;;12.50;99.90;;;;;;5018995;28;20461;-81
2021/12/21 12:03:58;;;;;;;12.10;5.97;;;14.90;99.90;;;;;;5034896;28;20506;-80
2021/12/21 12:06:28;;;;;;;10.87;6.13;;;17.00;91.90;;;;;;5034454;28;20453;-79
2021/12/21 12:09:00;;;;;;;8.27;5.40;;;18.30;80.70;;;;;;5010259;28;20538;-82
2021/12/21 12:11:35;;;;;;;9.30;5.60;;;19.20;73.60;;;;;;5009906;28;20520;-82
2021/12/21 12:14:08;;;;;;;8.20;5.23;;;19.60;66.60;;;;;;5015037;28;20552;-79
2021/12/21 12:16:46;;;;;;;7.27;5.30;;;18.50;63.00;;;;;;5016186;28;20535;-82
2021/12/21 12:19:15;;;;;;;8.87;5.60;;;16.30;64.20;;;;;;5009189;28;20472;-82
2021/12/21 12:21:55;;;;;;;9.73;5.67;;;14.20;67.00;;;;;;5010429;28;20464;-82
2021/12/21 12:24:24;;;;;;;8.00;5.67;;;12.30;71.10;;;;;;5019530;28;20441;-81
2021/12/21 12:27:02;;;;;;;13.27;7.93;;;10.90;78.20;;;;;;5012369;28;20450;-82
2021/12/21 12:29:29;;;;;;;12.17;6.87;;;9.80;88.70;;;;;;5013741;28;20453;-81
2021/12/21 12:32:02;;;;;;;15.40;7.80;;;8.90;99.90;;;;;;5007550;28;20476;-81
2021/12/21 12:34:32;;;;;;;12.20;7.07;;;7.50;99.90;;;;;;5009369;28;20561;-79
2021/12/21 12:37:00;;;;;;;13.03;7.80;;;7.00;99.90;;;;;;5019524;28;20461;-79
2021/12/21 12:39:32;;;;;;;10.10;6.40;;;6.40;99.90;;;;;;5018710;28;20483;-80
2021/12/21 12:42:05;;;;;;;10.67;7.57;;;5.80;99.90;;;;;;4998966;28;20467;-79
2021/12/21 12:44:32;;;;;;;11.13;7.23;;;5.30;99.90;;;;;;5011558;28;20451;-81
2021/12/21 12:47:02;;;;;;;13.80;7.67;;;5.00;99.90;;;;;;5014800;28;20450;-80
2021/12/21 12:49:32;;;;;;;10.80;7.03;;;4.70;99.90;;;;;;5015043;28;20470;-80
2021/12/21 12:55:15;;;;;;;13.00;7.70;;;4.00;99.90;;;;;;5021252;28;20533;-81
2021/12/21 12:57:55;;;;;;;14.83;8.80;;;3.80;99.90;;;;;;5016850;28;20466;-78
2021/12/21 13:00:41;;;;;;;6.20;3.70;;;3.70;99.90;;;;;;5024664;28;20458;-79
2021/12/21 13:03:11;;;;;;;11.30;8.83;;;6.70;99.90;;;;;;5013495;28;20563;-79
2021/12/21 13:05:45;;;;;;;27.97;17.57;;;7.60;99.90;;;;;;5004933;28;20926;-80
2021/12/21 13:08:16;;;;;;;21.47;14.20;;;7.50;99.90;;;;;;5006040;28;20465;-79
2021/12/21 13:10:47;;;;;;;25.10;17.07;;;6.80;99.90;;;;;;5006241;28;20689;-79
2021/12/21 13:13:15;;;;;;;20.87;14.67;;;6.30;99.90;;;;;;5004829;28;20865;-79
2021/12/21 13:15:47;;;;;;;15.43;10.70;;;5.70;99.90;;;;;;5011522;28;20541;-78
2021/12/21 13:18:17;;;;;;;19.20;11.20;;;5.30;99.90;;;;;;4999601;28;20838;-80
2021/12/21 13:20:45;;;;;;;15.57;8.77;;;5.00;99.90;;;;;;5004621;28;20460;-79
2021/12/21 13:23:16;;;;;;;14.10;9.50;;;4.70;99.90;;;;;;4997608;28;21118;-79